Time;durP1;ratioP1;P1;durP2;ratioP2;P2;SDS_P1;SDS_P2;PMS_P1;PMS_P2;Temp;Humidity;BMP_temperature;BMP_pressure;BME280_temperature;BME280_humidity;BME280_pressure;Samples;Min_cycle;Max_cycle;Signal;HPM_P1;HPM_P2
2022/09/09 06:35:58;;;;;;;554.27;507.63;;;21.30;75.00;;;;;;4171343;27;20475;-64
2022/09/09 06:38:24;;;;;;;558.42;513.88;;;22.40;72.70;;;;;;4148699;28;20046;-58
2022/09/09 06:40:55;;;;;;;0.00;0.00;;;23.80;71.40;;;;;;4147178;28;20061;-61
2022/09/09 06:43:20;;;;;;;0.00;0.00;;;23.00;68.60;;;;;;4148615;28;20128;-59
2022/09/09 06:45:59;;;;;;;0.00;0.00;;;22.60;70.20;;;;;;4130884;28;20528;-59
2022/09/09 06:48:25;;;;;;;0.00;0.00;;;22.50;70.30;;;;;;4160848;28;20061;-60
2022/09/09 06:50:49;;;;;;;0.00;0.00;;;22.40;70.90;;;;;;4117942;28;20054;-61
2022/09/09 06:53:18;;;;;;;0.00;0.00;;;22.40;70.80;;;;;;4126309;28;20050;-60
2022/09/09 06:55:46;;;;;;;15.90;14.63;;;;;;;;;;4137763;28;20050;-62
2022/09/09 06:58:10;;;;;;;0.00;0.00;;;24.50;93.70;;;;;;4099498;28;20433;-60
2022/09/09 07:00:42;;;;;;;1999.90;999.90;;;24.30;67.60;;;;;;4079383;28;20055;-64
2022/09/09 07:03:06;;;;;;;0.00;0.00;;;23.20;69.30;;;;;;4105206;28;60131;-65
2022/09/09 07:05:28;;;;;;;0.00;0.00;;;22.80;70.20;;;;;;4115197;28;69325;-63
2022/09/09 07:07:53;;;;;;;0.00;0.00;;;22.70;70.10;;;;;;4128105;28;20062;-63
2022/09/09 07:10:15;;;;;;;0.00;0.00;;;22.60;70.10;;;;;;4142098;28;20457;-65
2022/09/09 07:12:38;;;;;;;0.00;0.00;;;22.60;70.20;;;;;;4100575;28;20082;-68
2022/09/09 07:15:04;;;;;;;0.00;0.00;;;22.60;70.50;;;;;;4142793;28;20042;-64
2022/09/09 07:17:28;;;;;;;0.00;0.00;;;22.70;70.40;;;;;;4102184;28;20067;-63
2022/09/09 07:19:54;;;;;;;0.00;0.00;;;22.70;69.80;;;;;;4129074;28;20562;-66
2022/09/09 07:22:19;;;;;;;0.00;0.00;;;22.70;69.60;;;;;;4142552;28;20676;-65
2022/09/09 07:24:44;;;;;;;0.00;0.00;;;22.70;69.30;;;;;;4114397;28;20046;-63
2022/09/09 07:27:07;;;;;;;0.00;0.00;;;22.70;69.20;;;;;;4142410;28;20046;-63
2022/09/09 07:29:32;;;;;;;0.00;0.00;;;22.80;69.30;;;;;;4128974;28;20054;-65
2022/09/09 07:31:54;;;;;;;0.00;0.00;;;22.80;69.50;;;;;;4156316;28;20097;-66
2022/09/09 07:34:26;;;;;;;0.00;0.00;;;22.80;69.70;;;;;;4128964;28;20079;-62
2022/09/09 07:36:50;;;;;;;0.00;0.00;;;22.80;70.10;;;;;;4128362;28;20450;-65
2022/09/09 07:39:14;;;;;;;0.00;0.00;;;22.80;70.00;;;;;;4142234;28;20050;-65
2022/09/09 07:41:47;;;;;;;0.00;0.00;;;22.80;69.80;;;;;;4102866;28;20458;-64
2022/09/09 07:44:14;;;;;;;0.00;0.00;;;22.80;69.70;;;;;;4115286;28;20055;-63
2022/09/09 07:46:41;;;;;;;0.00;0.00;;;22.80;69.40;;;;;;4107959;28;20048;-63
2022/09/09 07:49:12;;;;;;;0.00;0.00;;;22.90;69.40;;;;;;4118140;28;20046;-63
2022/09/09 07:51:42;;;;;;;0.00;0.00;;;22.80;69.30;;;;;;4118032;28;20286;-63
2022/09/09 07:54:09;;;;;;;0.00;0.00;;;22.80;69.30;;;;;;4117810;28;20043;-64
2022/09/09 07:56:36;;;;;;;0.00;0.00;;;22.80;69.80;;;;;;4117511;28;20042;-62
2022/09/09 08:07:35;;;;;;;1999.90;999.90;;;;;;;;;;4177937;27;20391;-61
2022/09/09 08:09:58;;;;;;;1999.90;999.90;;;;;;;;;;4146212;28;20292;-59
2022/09/09 08:12:27;;;;;;;1999.90;999.90;;;;;;;;;;4147747;28;20108;-63
2022/09/09 08:14:55;;;;;;;1999.90;999.90;;;;;;;;;;4144366;28;84426;-59
2022/09/09 08:17:23;;;;;;;1999.90;999.90;;;;;;;;;;4135074;28;20462;-61
2022/09/09 08:19:46;;;;;;;1999.90;999.90;;;;;;;;;;4148196;28;20042;-59
2022/09/09 08:22:13;;;;;;;1999.90;999.90;;;;;;;;;;4148241;28;20132;-60
2022/09/09 08:24:35;;;;;;;1999.90;999.90;;;;;;;;;;4147777;28;20137;-63
2022/09/09 08:26:58;;;;;;;1999.90;999.90;;;;;;;;;;4148260;28;20088;-59
2022/09/09 08:29:23;;;;;;;1999.90;999.90;;;;;;;;;;4148297;28;20073;-60
2022/09/09 08:31:54;;;;;;;1999.90;999.90;;;;;;;;;;4148118;28;20088;-60
2022/09/09 08:34:19;;;;;;;1999.90;999.90;;;;;;;;;;4147924;28;20153;-62
2022/09/09 08:36:48;;;;;;;1999.90;999.90;;;;;;;;;;4147510;28;20429;-59
2022/09/09 08:39:11;;;;;;;1999.90;999.90;;;;;;;;;;4147827;28;20115;-63
2022/09/09 08:41:49;;;;;;;1999.90;999.90;;;;;;;;;;4161794;28;20038;-61
2022/09/09 08:44:24;;;;;;;1999.90;999.90;;;;;;;;;;4147892;28;20594;-61
2022/09/09 08:47:07;;;;;;;1999.90;999.90;;;;;;;;;;4161121;28;20049;-62
2022/09/09 08:49:39;;;;;;;1999.90;999.90;;;;;;;;;;4134542;28;20390;-60
2022/09/09 08:52:06;;;;;;;1999.90;999.90;;;;;;;;;;4148246;28;20073;-65
2022/09/09 08:54:32;;;;;;;1999.90;999.90;;;;;;;;;;4147229;28;20104;-55
2022/09/09 08:57:19;;;;;;;1999.90;999.90;;;;;;;;;;4147862;28;20465;-62
2022/09/09 08:59:44;;;;;;;1999.90;999.90;;;;;;;;;;4144890;28;20069;-59
2022/09/09 09:02:10;;;;;;;1999.90;999.90;;;;;;;;;;4117774;28;20167;-57
2022/09/09 09:04:53;;;;;;;1999.90;999.90;;;;;;;;;;4145529;28;20046;-60
2022/09/09 09:07:16;;;;;;;1999.90;999.90;;;;;;;;;;4131146;28;20124;-59
2022/09/09 09:09:58;;;;;;;1999.90;999.90;;;;;;;;;;4131331;28;20054;-60
2022/09/09 09:12:24;;;;;;;1999.90;999.90;;;;;;;;;;4131315;28;20388;-60
2022/09/09 09:14:51;;;;;;;1999.90;999.90;;;;;;;;;;4117245;28;20141;-56
2022/09/09 09:17:18;;;;;;;1999.90;999.90;;;;;;;;;;4136020;28;20125;-58
2022/09/09 09:19:43;;;;;;;1999.90;999.90;;;;;;;;;;4124779;28;20133;-54
2022/09/09 09:22:07;;;;;;;1999.90;999.90;;;;;;;;;;4135968;28;20046;-60
2022/09/09 09:24:32;;;;;;;1999.90;999.90;;;;;;;;;;4135523;28;20050;-56
2022/09/09 09:26:54;;;;;;;1999.90;999.90;;;;;;;;;;4135993;28;20062;-59
2022/09/09 09:29:19;;;;;;;1999.90;999.90;;;;;;;;;;4136359;28;20077;-63
2022/09/09 09:31:56;;;;;;;1999.90;999.90;;;;;;;;;;4135817;28;20578;-59
2022/09/09 09:34:23;;;;;;;1999.90;999.90;;;;;;;;;;4122380;28;20050;-57
2022/09/09 09:36:54;;;;;;;1999.90;999.90;;;;;;;;;;4135741;28;20098;-58
2022/09/09 09:39:24;;;;;;;1999.90;999.90;;;;;;;;;;4136244;28;20039;-55
2022/09/09 09:42:14;;;;;;;1999.90;999.90;;;23.70;66.30;;;;;;4136360;28;20066;-61
2022/09/09 09:44:44;;;;;;;1999.90;999.90;;;23.80;66.60;;;;;;4146241;28;20427;-63
2022/09/09 09:47:23;;;;;;;1999.90;999.90;;;23.60;66.90;;;;;;4128715;28;20136;-62
2022/09/09 09:49:59;;;;;;;1999.90;999.90;;;23.40;67.00;;;;;;4134867;28;20087;-58
2022/09/09 09:52:26;;;;;;;1999.90;999.90;;;23.20;66.90;;;;;;4147588;28;20073;-61
2022/09/09 09:54:54;;;;;;;1999.90;999.90;;;23.40;65.80;;;;;;4123386;28;20042;-59
2022/09/09 09:57:23;;;;;;;1999.90;999.90;;;23.50;65.50;;;;;;4135613;28;20054;-59
2022/09/09 09:59:46;;;;;;;1999.90;999.90;;;23.50;65.50;;;;;;4135966;28;20047;-60
2022/09/09 10:02:25;;;;;;;1999.90;999.90;;;23.60;65.80;;;;;;4135716;28;20521;-53
2022/09/09 10:05:05;;;;;;;1999.90;999.90;;;23.70;66.10;;;;;;4135485;28;20050;-62
2022/09/09 10:07:29;;;;;;;1999.90;999.90;;;23.70;66.10;;;;;;4149230;28;20081;-61
2022/09/09 10:09:57;;;;;;;1999.90;999.90;;;23.70;65.80;;;;;;4135072;28;20050;-57
2022/09/09 10:12:29;;;;;;;1999.90;999.90;;;23.70;65.80;;;;;;4135729;28;20054;-61
2022/09/09 10:15:13;;;;;;;71.53;69.22;;;23.70;65.60;;;;;;4149079;28;20444;-61
2022/09/09 10:18:07;;;;;;;42.40;41.40;;;23.70;65.70;;;;;;4149274;28;20141;-55
2022/09/09 10:21:00;;;;;;;32.75;32.15;;;23.70;65.60;;;;;;4134682;28;20069;-58
2022/09/09 10:23:43;;;;;;;28.27;27.88;;;23.50;64.80;;;;;;4149329;28;20056;-61
2022/09/09 10:26:11;;;;;;;23.35;23.15;;;23.40;65.00;;;;;;4149214;28;20057;-57
2022/09/09 10:28:51;;;;;;;16.35;16.25;;;23.30;65.50;;;;;;4149168;28;20128;-58
2022/09/09 10:31:24;;;;;;;25.23;24.83;;;23.20;66.10;;;;;;4122160;28;20489;-61
2022/09/09 10:33:56;;;;;;;17.98;17.88;;;23.10;66.50;;;;;;4135537;28;20046;-60
2022/09/09 10:36:25;;;;;;;20.08;19.98;;;23.00;67.60;;;;;;4149306;28;20468;-57
2022/09/09 10:39:04;;;;;;;21.90;21.73;;;23.00;67.90;;;;;;4134878;28;20078;-61
2022/09/09 10:41:47;;;;;;;1266.80;582.90;;;23.00;68.30;;;;;;4148991;28;20042;-58
2022/09/09 10:44:15;;;;;;;1274.38;583.67;;;23.20;68.40;;;;;;4135207;28;20133;-60
2022/09/09 10:46:47;;;;;;;1259.38;584.03;;;23.30;68.80;;;;;;4148797;28;20049;-55
2022/09/09 10:49:37;;;;;;;1284.45;587.70;;;23.40;68.30;;;;;;4148652;28;20060;-59
2022/09/09 10:52:15;;;;;;;1302.23;586.77;;;23.40;68.10;;;;;;4148738;28;20038;-60
2022/09/09 10:54:51;;;;;;;1296.63;587.40;;;23.50;67.80;;;;;;4134734;28;20072;-58
2022/09/09 10:57:36;;;;;;;1290.80;585.95;;;23.60;67.80;;;;;;4148774;28;20054;-61
2022/09/09 11:00:04;;;;;;;1247.25;585.00;;;23.60;68.10;;;;;;4162295;28;20042;-59
2022/09/09 11:02:31;;;;;;;1999.90;999.90;;;23.60;67.20;;;;;;4135490;28;20057;-61
2022/09/09 11:04:58;;;;;;;1999.90;999.90;;;23.40;66.80;;;;;;4148453;28;20132;-58
2022/09/09 11:07:30;;;;;;;1999.90;999.90;;;23.30;67.00;;;;;;4148532;28;20054;-57
2022/09/09 11:10:01;;;;;;;1999.90;999.90;;;23.40;67.60;;;;;;4148542;28;20137;-58
2022/09/09 11:12:24;;;;;;;1999.90;999.90;;;23.50;69.90;;;;;;4135027;28;20050;-57
2022/09/09 11:15:16;;;;;;;1999.90;999.90;;;23.40;69.20;;;;;;4148196;28;20130;-60
2022/09/09 11:17:56;;;;;;;1999.90;999.90;;;23.40;70.70;;;;;;4134896;28;20142;-58
2022/09/09 11:20:20;;;;;;;1999.90;999.90;;;23.40;70.40;;;;;;4134767;28;20050;-59
2022/09/09 11:22:54;;;;;;;1999.90;999.90;;;23.40;69.90;;;;;;4135617;28;20088;-56
2022/09/09 11:25:33;;;;;;;1999.90;999.90;;;23.40;69.90;;;;;;4148338;28;20046;-58
2022/09/09 11:28:22;;;;;;;1999.90;999.90;;;23.40;70.10;;;;;;4148239;28;20125;-54
2022/09/09 11:30:53;;;;;;;1999.90;999.90;;;23.50;69.70;;;;;;4120514;28;20050;-56
2022/09/09 11:33:51;;;;;;;1999.90;999.90;;;23.50;69.10;;;;;;4121768;28;20054;-57
2022/09/09 11:36:30;;;;;;;1999.90;999.90;;;23.50;68.90;;;;;;4134666;28;20049;-56
2022/09/09 11:39:18;;;;;;;1999.90;999.90;;;23.60;67.30;;;;;;4135955;28;20053;-56
2022/09/09 11:41:41;;;;;;;1999.90;999.90;;;23.60;67.50;;;;;;4155199;28;20069;-57
2022/09/09 11:44:33;;;;;;;1999.90;999.90;;;23.60;67.20;;;;;;4148115;28;20402;-55
2022/09/09 11:46:56;;;;;;;1999.90;999.90;;;23.60;67.10;;;;;;4147611;28;20060;-57
2022/09/09 11:49:41;;;;;;;1999.90;999.90;;;23.60;67.40;;;;;;4134645;28;20456;-57
2022/09/09 11:52:25;;;;;;;1999.90;999.90;;;23.60;67.10;;;;;;4147988;28;20054;-54
2022/09/09 11:54:49;;;;;;;1999.90;999.90;;;23.60;66.80;;;;;;4147693;28;20161;-60
2022/09/09 11:57:32;;;;;;;1999.90;999.90;;;23.70;67.10;;;;;;4148087;28;20628;-57
2022/09/09 11:59:54;;;;;;;1999.90;999.90;;;23.70;66.70;;;;;;4134251;28;20129;-60
2022/09/09 12:02:23;;;;;;;1999.90;999.90;;;23.70;66.70;;;;;;4147853;28;20041;-59
2022/09/09 12:05:13;;;;;;;1999.90;999.90;;;23.70;67.00;;;;;;4133725;28;20038;-57
2022/09/09 12:07:42;;;;;;;1999.90;999.90;;;23.70;66.50;;;;;;4134192;28;20045;-59
2022/09/09 12:10:28;;;;;;;1999.90;999.90;;;23.70;66.60;;;;;;4147963;28;20046;-60
2022/09/09 12:12:53;;;;;;;1999.90;999.90;;;23.70;66.80;;;;;;4147703;28;20073;-60
2022/09/09 12:15:20;;;;;;;1999.90;999.90;;;23.70;66.80;;;;;;4134392;28;20145;-58
2022/09/09 12:17:50;;;;;;;1999.90;999.90;;;23.80;67.10;;;;;;4147872;28;20050;-67
2022/09/09 12:20:18;;;;;;;220.05;208.05;;;26.10;63.20;;;;;;4134338;28;20653;-64
2022/09/09 12:23:05;;;;;;;1999.90;999.90;;;25.10;64.00;;;;;;4133950;28;20050;-65
2022/09/09 12:25:45;;;;;;;223.52;211.13;;;24.60;65.00;;;;;;4147828;28;20042;-62
2022/09/09 12:28:25;;;;;;;237.43;224.60;;;24.40;65.50;;;;;;4134027;28;20077;-63
2022/09/09 12:31:03;;;;;;;238.90;225.85;;;24.40;65.60;;;;;;4133719;28;20133;-65
2022/09/09 12:33:39;;;;;;;228.55;216.52;;;24.30;65.40;;;;;;4147894;28;20112;-64
2022/09/09 12:36:05;;;;;;;238.60;225.77;;;24.30;65.00;;;;;;4147973;28;20069;-65
2022/09/09 12:38:36;;;;;;;220.40;208.20;;;24.30;64.20;;;;;;4147768;28;20046;-65
2022/09/09 12:41:03;;;;;;;245.57;232.37;;;24.30;64.00;;;;;;4133851;28;20078;-65
2022/09/09 12:43:31;;;;;;;214.60;202.18;;;24.20;63.60;;;;;;4147653;28;20289;-65
2022/09/09 12:46:08;;;;;;;207.65;195.57;;;24.20;63.70;;;;;;4134266;28;20141;-66
2022/09/09 12:48:37;;;;;;;208.77;196.93;;;24.10;63.70;;;;;;4160443;28;20121;-64
2022/09/09 12:51:08;;;;;;;202.52;190.80;;;24.00;64.00;;;;;;4120825;28;20496;-65
2022/09/09 12:53:35;;;;;;;216.05;203.85;;;24.00;63.80;;;;;;4149407;28;20084;-66
2022/09/09 12:56:17;;;;;;;197.75;186.65;;;24.00;63.50;;;;;;4137049;28;20088;-65
2022/09/09 12:58:46;;;;;;;210.75;199.07;;;23.90;63.70;;;;;;4150347;28;20060;-64
2022/09/09 13:01:26;;;;;;;271.63;251.88;;;23.80;64.10;;;;;;4137054;28;20401;-65
2022/09/09 13:03:50;;;;;;;207.55;195.75;;;23.80;64.00;;;;;;4137399;28;20689;-63
2022/09/09 13:06:23;;;;;;;213.73;201.82;;;23.80;63.60;;;;;;4123247;28;20051;-65
2022/09/09 13:08:54;;;;;;;226.50;214.15;;;23.80;63.60;;;;;;4135572;28;20065;-61
2022/09/09 13:11:38;;;;;;;227.68;215.07;;;23.70;63.40;;;;;;4136057;28;20050;-66
2022/09/09 13:14:01;;;;;;;233.43;220.77;;;23.70;63.30;;;;;;4136061;28;20117;-63
2022/09/09 13:16:32;;;;;;;216.07;203.98;;;23.80;63.40;;;;;;4149024;28;20061;-63
2022/09/09 13:19:15;;;;;;;206.32;194.32;;;23.80;63.50;;;;;;4137233;28;20061;-63
2022/09/09 13:21:39;;;;;;;208.98;196.50;;;23.80;63.90;;;;;;4150378;28;20497;-66
2022/09/09 13:24:04;;;;;;;214.30;201.50;;;23.80;64.10;;;;;;4136525;28;20129;-63
2022/09/09 13:26:27;;;;;;;208.13;195.93;;;23.80;64.20;;;;;;4136827;28;20081;-64
2022/09/09 13:28:52;;;;;;;218.30;205.57;;;23.90;64.30;;;;;;4122771;28;20062;-63
2022/09/09 13:31:20;;;;;;;244.00;229.05;;;23.90;64.20;;;;;;4150217;28;20081;-63
2022/09/09 13:33:45;;;;;;;217.80;205.20;;;23.90;64.30;;;;;;4136586;28;20045;-65
2022/09/09 13:36:09;;;;;;;225.52;212.88;;;23.90;64.30;;;;;;4149862;28;20041;-65
2022/09/09 13:38:36;;;;;;;222.55;209.95;;;23.90;64.20;;;;;;4136201;28;20528;-65
2022/09/09 13:41:05;;;;;;;223.25;210.18;;;23.90;64.20;;;;;;4122741;28;20097;-63
2022/09/09 13:43:28;;;;;;;215.23;202.52;;;23.90;64.00;;;;;;4149775;28;20042;-65
2022/09/09 13:45:59;;;;;;;210.05;197.52;;;24.00;64.10;;;;;;4135884;28;20093;-63
2022/09/09 13:48:21;;;;;;;206.55;193.77;;;24.00;64.00;;;;;;4149093;28;20056;-63
2022/09/09 13:50:59;;;;;;;213.88;200.75;;;24.00;63.80;;;;;;4149204;28;20054;-63
2022/09/09 13:53:21;;;;;;;241.25;227.25;;;24.00;63.80;;;;;;4149773;28;20050;-63
2022/09/09 13:55:44;;;;;;;244.10;229.90;;;24.00;63.70;;;;;;4143398;28;20046;-65
2022/09/09 13:58:16;;;;;;;243.15;228.82;;;24.00;63.60;;;;;;4136790;28;20752;-62
2022/09/09 14:00:41;;;;;;;228.95;215.27;;;24.10;63.60;;;;;;4135984;28;20056;-63
2022/09/09 14:03:07;;;;;;;214.60;201.50;;;24.10;63.50;;;;;;4135838;28;20424;-65
2022/09/09 14:05:35;;;;;;;221.30;208.10;;;24.10;63.50;;;;;;4149315;28;20046;-63
2022/09/09 14:07:57;;;;;;;227.82;214.52;;;24.10;63.80;;;;;;4163046;28;20056;-65
2022/09/09 14:10:21;;;;;;;225.68;212.25;;;24.10;63.30;;;;;;4135884;28;20129;-63
2022/09/09 14:12:46;;;;;;;221.05;208.18;;;24.10;63.30;;;;;;4149013;28;20330;-67
2022/09/09 14:15:10;;;;;;;215.95;203.63;;;24.20;63.30;;;;;;4135745;28;20043;-63
2022/09/09 14:17:35;;;;;;;216.65;204.20;;;24.10;63.30;;;;;;4149527;28;20477;-67
2022/09/09 14:20:00;;;;;;;217.93;205.48;;;24.20;63.30;;;;;;4149272;28;20096;-66
2022/09/09 14:22:25;;;;;;;225.60;212.60;;;24.20;63.30;;;;;;4136006;28;20056;-65
2022/09/09 14:24:47;;;;;;;217.27;205.20;;;24.20;63.20;;;;;;4148635;28;20050;-66
2022/09/09 14:27:14;;;;;;;234.90;223.20;;;24.20;63.20;;;;;;4121774;28;20096;-64
2022/09/09 14:29:38;;;;;;;239.82;226.93;;;24.20;63.20;;;;;;4149322;28;20484;-67
2022/09/09 14:32:03;;;;;;;226.70;214.38;;;24.20;63.20;;;;;;4135418;28;20126;-64
2022/09/09 14:34:24;;;;;;;223.80;211.30;;;24.20;63.10;;;;;;4149102;28;20042;-64
2022/09/09 14:36:51;;;;;;;221.50;209.55;;;24.20;63.10;;;;;;4134830;28;20060;-64
2022/09/09 14:39:17;;;;;;;217.30;205.10;;;24.30;63.10;;;;;;4148933;28;20152;-65
2022/09/09 14:41:42;;;;;;;218.10;205.82;;;24.30;63.00;;;;;;4135307;28;20046;-66
2022/09/09 14:44:08;;;;;;;214.77;202.75;;;24.30;62.90;;;;;;4148971;28;20042;-66
2022/09/09 14:46:31;;;;;;;228.65;216.65;;;24.30;62.90;;;;;;4134588;28;20153;-64
2022/09/09 14:48:53;;;;;;;256.42;241.95;;;24.30;62.80;;;;;;4135091;28;20069;-65
2022/09/09 14:51:24;;;;;;;257.35;242.45;;;24.30;62.70;;;;;;4135182;28;20082;-64
2022/09/09 14:53:47;;;;;;;249.20;234.75;;;24.40;62.70;;;;;;4134951;28;20043;-63
2022/09/09 14:56:14;;;;;;;254.55;239.25;;;24.40;62.70;;;;;;4134857;28;20105;-64
2022/09/09 14:58:38;;;;;;;235.43;222.95;;;24.40;62.70;;;;;;4108806;28;20605;-63
2022/09/09 15:01:20;;;;;;;239.48;226.85;;;24.40;62.70;;;;;;4135325;28;20129;-64
2022/09/09 15:03:50;;;;;;;250.60;237.73;;;24.40;62.70;;;;;;4134914;28;20050;-63
2022/09/09 15:06:17;;;;;;;256.58;243.80;;;24.40;62.70;;;;;;4148421;28;20496;-62
2022/09/09 15:08:42;;;;;;;251.40;238.77;;;24.40;62.70;;;;;;4134438;28;20473;-62
2022/09/09 15:11:07;;;;;;;248.73;236.10;;;24.40;62.60;;;;;;4148568;28;20054;-62
2022/09/09 15:13:29;;;;;;;233.70;221.30;;;24.40;62.60;;;;;;4121488;28;20400;-62
2022/09/09 15:15:51;;;;;;;226.95;214.75;;;24.50;62.60;;;;;;4134373;28;20481;-67
2022/09/09 15:18:16;;;;;;;225.00;212.50;;;24.50;62.70;;;;;;4148304;28;20046;-64
2022/09/09 15:20:46;;;;;;;234.32;221.38;;;24.50;62.60;;;;;;4120771;28;20068;-62
2022/09/09 15:23:10;;;;;;;257.37;241.47;;;24.50;62.60;;;;;;4121521;28;20102;-63
2022/09/09 15:25:32;;;;;;;227.55;215.23;;;24.50;62.70;;;;;;4148427;28;20060;-64
2022/09/09 15:27:56;;;;;;;258.73;242.65;;;24.50;62.70;;;;;;4134595;28;20054;-63
2022/09/09 15:30:21;;;;;;;322.88;299.20;;;24.50;62.60;;;;;;4148043;28;20053;-63
2022/09/09 15:32:43;;;;;;;227.60;215.90;;;24.50;62.60;;;;;;4133735;28;20088;-63
2022/09/09 15:35:05;;;;;;;236.80;224.52;;;24.60;62.70;;;;;;4134534;28;20138;-65
2022/09/09 15:37:32;;;;;;;231.10;219.27;;;24.60;62.60;;;;;;4147924;28;20100;-64
2022/09/09 15:39:58;;;;;;;225.93;214.23;;;24.60;62.60;;;;;;4148239;28;20342;-60
2022/09/09 15:42:22;;;;;;;228.45;216.68;;;24.60;62.60;;;;;;4134476;28;20070;-64
2022/09/09 15:44:47;;;;;;;227.85;215.85;;;24.60;62.60;;;;;;4134178;28;20494;-62
